Liberty Promise — WWMZ — position and weather

sailwx.info

Track history (hours):
 
Tides and Currents Weather Stations Pressure Air Temp Water Temp Dewpoint Dewpoint Depression Visibility Wind Speed Wind Dir Waves Ship Positions

Liberty Promise

Owner: LIBERTY PROMISE CORPORATION, LAKE SUCCESS, NY. More information available from US FCC via Universal Licensing System and Coast Guard Vessel Documentation Center.

Last reported at 2017-May-29 02:54 UTC. Time now 2017-May-29 18:45 UTC.
Position N 30°24' W 081°19'.

Length 200 m; draft 8.5 m.

Type: Cargo ship. MMSI: 366102000.

Date/timePositionNaut miles runAvg speedWind from/ knotsBaromVisibWave heightAir tempDewpointWater temp
2017-May-29 02:54N 30°24' W 081°19'11 0.7
2017-May-28 11:33N 30°23' W 081°33'0 0.0
2017-May-28 11:21N 30°23' W 081°33'0 0.0
2017-May-28 11:00N 30°23' W 081°33'0 0.0
2017-May-27 11:42N 30°23' W 081°33'0 1.2
2017-May-27 11:30N 30°23' W 081°32'3 6.6
2017-May-27 10:58N 30°24' W 081°28'25 9.3
2017-May-27 08:17N 30°24' W 080°59'1116.0
2017-May-27 07:36N 30°30' W 080°49'415.9
2017-May-27 07:23N 30°32' W 080°46'615.9
2017-May-27 07:01N 30°36' W 080°41'815.7
2017-May-27 06:30N 30°41' W 080°34'54314.1
2017-May-25 16:05N 38°19' W 074°41'216.0
2017-May-25 15:59N 38°21' W 074°42'816.1
2017-May-25 15:30N 38°29' W 074°45'816.2
2017-May-25 15:00N 38°35' W 074°51'1814.1
2017-May-25 13:43N 38°50' W 075°04'4 9.7
2017-May-25 13:15N 38°54' W 075°05'313.7
2017-May-25 13:00N 38°58' W 075°07'713.5
2017-May-25 12:31N 39°04' W 075°10'612.7
2017-May-25 12:00N 39°09' W 075°15'612.4
2017-May-25 11:31N 39°15' W 075°19'713.2
2017-May-25 11:01N 39°19' W 075°25'714.2
2017-May-25 10:30N 39°25' W 075°31'713.4
2017-May-25 10:00N 39°31' W 075°33'714.2
2017-May-25 09:30N 39°38' W 075°34'5 9.8
2017-May-25 09:01N 39°42' W 075°31'0 0.1
2017-May-25 08:30N 39°43' W 075°31'0 0.0
2017-May-25 08:00N 39°43' W 075°31'0 0.0
2017-May-25 07:30N 39°43' W 075°31'0 0.0
2017-May-25 07:00N 39°43' W 075°31'0 0.0
2017-May-25 06:30N 39°43' W 075°31'0 0.0
2017-May-25 06:00N 39°43' W 075°31'0 0.0
2017-May-25 05:31N 39°43' W 075°31'0 0.0
2017-May-25 05:00N 39°43' W 075°31'0 0.0
2017-May-25 04:30N 39°43' W 075°31'0 0.0
2017-May-25 04:00N 39°43' W 075°31'0 0.0
2017-May-25 03:30N 39°43' W 075°31'0 0.0
2017-May-25 03:00N 39°43' W 075°31'0 0.0
2017-May-25 02:27N 39°43' W 075°31'0 0.0
2017-May-25 01:57N 39°43' W 075°31'0 0.0
2017-May-25 01:30N 39°43' W 075°31'0 0.0
2017-May-25 01:00N 39°43' W 075°31'0 0.0
2017-May-25 00:30N 39°43' W 075°31'0 0.0
2017-May-25 00:00N 39°43' W 075°31'0 0.0
2017-May-24 23:30N 39°43' W 075°31'0 0.0
2017-May-24 23:00N 39°43' W 075°31'0 0.0
2017-May-24 22:30N 39°43' W 075°31'0 0.0
2017-May-24 22:00N 39°43' W 075°31'0 0.0
2017-May-24 21:27N 39°43' W 075°31'0 0.0
2017-May-24 21:00N 39°43' W 075°31'0 0.0
2017-May-24 20:30N 39°43' W 075°31'0 0.0
2017-May-24 20:00N 39°43' W 075°31'0 0.0
2017-May-24 19:24N 39°43' W 075°31'0 0.0
2017-May-24 19:00N 39°43' W 075°31'0 0.0
2017-May-24 18:30N 39°43' W 075°31'0 0.0
2017-May-24 18:00N 39°43' W 075°31'0 0.0
2017-May-24 17:30N 39°43' W 075°31'0 0.0
2017-May-24 17:00N 39°43' W 075°31'0 0.0
2017-May-24 16:30N 39°43' W 075°31'0 0.0
2017-May-24 16:00N 39°43' W 075°31'0 0.0
2017-May-24 15:30N 39°43' W 075°31'0 0.0
2017-May-24 15:00N 39°43' W 075°31'0 0.0
2017-May-24 14:00N 39°43' W 075°31'0 0.0
2017-May-24 13:30N 39°43' W 075°31'0 0.0
2017-May-24 13:00N 39°43' W 075°31'0 0.0
2017-May-24 12:30N 39°43' W 075°31'0 0.0
2017-May-24 12:00N 39°43' W 075°31'0 0.0
2017-May-24 11:30N 39°43' W 075°31'0 0.0
2017-May-24 11:00N 39°43' W 075°31'0 0.0
2017-May-24 10:30N 39°43' W 075°31'0 0.0
2017-May-24 10:00N 39°43' W 075°31'0 0.0
2017-May-24 09:30N 39°43' W 075°31'0 0.0
2017-May-24 09:00N 39°43' W 075°31'0 0.0
2017-May-24 08:30N 39°43' W 075°31'0 0.0
2017-May-24 08:00N 39°43' W 075°31'0 0.0
2017-May-24 07:30N 39°43' W 075°31'0 0.0
2017-May-24 07:00N 39°43' W 075°31'0 0.0
2017-May-24 06:30N 39°43' W 075°31'0 0.1
2017-May-24 06:00N 39°42' W 075°31'3 5.7
2017-May-24 05:30N 39°45' W 075°29'3 6.7
2017-May-24 05:00N 39°48' W 075°26'3 5.0
2017-May-24 04:30N 39°49' W 075°24'2 4.1
2017-May-24 04:01N 39°50' W 075°22'3 5.2
2017-May-24 03:30N 39°51' W 075°18'4 7.4
2017-May-24 03:00N 39°52' W 075°14'4 7.4
2017-May-24 02:30N 39°53' W 075°09'2 3.0
2017-May-24 02:00N 39°54' W 075°08'0 0.0
2017-May-24 01:29N 39°54' W 075°08'0 0.0
2017-May-24 00:59N 39°54' W 075°08'0 0.0
2017-May-24 00:29N 39°54' W 075°08'0 0.0
2017-May-23 23:59N 39°54' W 075°08'0 0.0
2017-May-23 23:29N 39°54' W 075°08'0 0.0
2017-May-23 22:59N 39°54' W 075°08'0 0.0
2017-May-23 22:29N 39°54' W 075°08'0 0.0
2017-May-23 21:59N 39°54' W 075°08'0 0.0
2017-May-23 21:29N 39°54' W 075°08'0 0.0
2017-May-23 21:00N 39°54' W 075°08'0 0.0
2017-May-23 20:30N 39°54' W 075°08'0 0.0
2017-May-23 19:59N 39°54' W 075°08'0 0.0
2017-May-23 19:29N 39°54' W 075°08'0 0.0
2017-May-23 18:59N 39°54' W 075°08'0 0.0
2017-May-23 18:29N 39°54' W 075°08'0 0.0
2017-May-23 17:59N 39°54' W 075°08'0 0.0
2017-May-23 17:29N 39°54' W 075°08'0 0.0
2017-May-23 16:59N 39°54' W 075°08'0 0.0
2017-May-23 16:29N 39°54' W 075°08'0 0.0
2017-May-23 15:59N 39°54' W 075°08'0 0.0
2017-May-23 15:29N 39°54' W 075°08'0 0.0
2017-May-23 14:59N 39°54' W 075°08'0 0.0
2017-May-23 13:59N 39°54' W 075°08'0 0.0
2017-May-23 13:29N 39°54' W 075°08'0 0.0
2017-May-23 12:59N 39°54' W 075°08'0 0.0
2017-May-23 12:29N 39°54' W 075°08'0 0.0
2017-May-23 11:59N 39°54' W 075°08'0 0.0
2017-May-23 11:31N 39°54' W 075°08'2 3.3
2017-May-23 11:00N 39°53' W 075°09'3 6.7
2017-May-23 10:31N 39°52' W 075°13'4 8.2
2017-May-23 10:00N 39°51' W 075°19'5 9.7
2017-May-23 09:30N 39°49' W 075°24'611.2
2017-May-23 09:01N 39°45' W 075°30'611.2
2017-May-23 08:30N 39°40' W 075°32'611.4
2017-May-23 08:01N 39°34' W 075°33'5 9.8
2017-May-23 07:31N 39°29' W 075°34'612.6
2017-May-23 07:01N 39°24' W 075°29'713.4
2017-May-23 06:31N 39°19' W 075°24'713.7
2017-May-23 06:00N 39°14' W 075°18'713.9
2017-May-23 05:31N 39°08' W 075°13'714.1
2017-May-23 05:00N 39°01' W 075°09'813.2
2017-May-23 04:25N 38°54' W 075°05'511.4
2017-May-23 04:00N 38°50' W 075°03'3 6.9
2017-May-23 03:31N 38°47' W 075°01'611.7
2017-May-23 03:00N 38°47' W 074°53'612.2
2017-May-23 02:29N 38°48' W 074°45'713.2
2017-May-23 01:59N 38°49' W 074°37'715.1
2017-May-23 01:30N 38°51' W 074°28'815.2
2017-May-23 01:00N 38°53' W 074°19'1515.2
2017-May-23 00:01N 38°58' W 074°00'115.1
2017-May-22 23:58N 38°59' W 073°59'715.1
2017-May-22 23:30N 39°01' W 073°51'25410.2
2017-May-21 22:32N 41°52' W 069°45'1 9.7
2017-May-21 22:27N 41°53' W 069°45'610.4
2017-May-21 21:55N 41°58' W 069°49'717.0
2017-May-21 21:30N 42°04' W 069°53'917.2
2017-May-21 21:00N 42°12' W 069°59'815.5
2017-May-21 20:30N 42°17' W 070°07'916.3
2017-May-21 19:59N 42°18' W 070°18'816.7
2017-May-21 19:30N 42°19' W 070°29'816.6
2017-May-21 19:00N 42°20' W 070°40'815.5
2017-May-21 18:30N 42°23' W 070°50'611.4
2017-May-21 18:00N 42°20' W 070°57'5 9.1
2017-May-21 17:30N 42°22' W 071°03'2 2.9
2017-May-21 17:00N 42°23' W 071°03'0 0.0
2017-May-21 16:30N 42°23' W 071°03'0 0.0
2017-May-21 16:00N 42°23' W 071°03'0 0.0
2017-May-21 15:30N 42°23' W 071°03'0 0.0
2017-May-21 15:00N 42°23' W 071°03'0 0.0
2017-May-21 14:30N 42°23' W 071°03'0 0.0
2017-May-21 13:30N 42°23' W 071°03'0 0.0
2017-May-21 13:00N 42°23' W 071°03'0 0.0
2017-May-21 12:30N 42°23' W 071°03'0 0.0
2017-May-21 12:00N 42°23' W 071°03'0 0.0
2017-May-21 11:30N 42°23' W 071°03'0 0.0
2017-May-21 11:00N 42°23' W 071°03'0 0.0
2017-May-21 10:30N 42°23' W 071°03'0 0.0
2017-May-21 10:00N 42°23' W 071°03'0 0.0
2017-May-21 09:30N 42°23' W 071°03'0 0.0
2017-May-21 09:00N 42°23' W 071°03'0 0.0
2017-May-21 08:30N 42°23' W 071°03'0 0.0
2017-May-21 08:00N 42°23' W 071°03'0 0.0
2017-May-21 07:30N 42°23' W 071°03'0 0.0
2017-May-21 06:54N 42°23' W 071°03'0 0.0
2017-May-21 06:30N 42°23' W 071°03'0 0.0
2017-May-21 05:57N 42°23' W 071°03'0 0.0
2017-May-21 05:30N 42°23' W 071°03'0 0.0
2017-May-21 04:51N 42°23' W 071°03'0 0.0
2017-May-21 04:30N 42°23' W 071°03'0 0.0
2017-May-21 04:00N 42°23' W 071°03'0 0.0
2017-May-21 03:30N 42°23' W 071°03'0 0.0
2017-May-21 03:00N 42°23' W 071°03'0 0.0
2017-May-21 02:30N 42°23' W 071°03'0 0.0
2017-May-21 02:00N 42°23' W 071°03'0 0.0
2017-May-21 01:30N 42°23' W 071°03'0 0.0
2017-May-21 01:00N 42°23' W 071°03'0 0.7
2017-May-21 00:30N 42°23' W 071°03'4 8.1
2017-May-21 00:01N 42°20' W 070°59'713.6
2017-May-20 23:30N 42°24' W 070°51'611.7
2017-May-20 23:01N 42°23' W 070°43'713.7
2017-May-20 22:31N 42°22' W 070°34'918.0
2017-May-20 22:01N 42°21' W 070°22'918.2
2017-May-20 21:30N 42°20' W 070°10'917.2
2017-May-20 21:00N 42°18' W 069°59'917.7
2017-May-20 20:31N 42°10' W 069°53'199 8.3
2017-May-19 20:41N 40°26' W 073°38'516.6
2017-May-19 20:22N 40°27' W 073°45'512.1
2017-May-19 19:59N 40°28' W 073°51'714.5
2017-May-19 19:30N 40°31' W 073°59'713.8
2017-May-19 19:00N 40°37' W 074°03'4 7.4
2017-May-19 18:31N 40°39' W 074°07'2 4.1
2017-May-19 18:01N 40°41' W 074°08'1 2.5
2017-May-19 17:31N 40°42' W 074°09'0 0.4
2017-May-19 16:59N 40°42' W 074°09'0 0.0
2017-May-19 16:29N 40°42' W 074°09'0 0.0
2017-May-19 15:59N 40°42' W 074°09'0 0.0
2017-May-19 15:29N 40°42' W 074°09'0 0.0
2017-May-19 14:59N 40°42' W 074°09'0 0.0
2017-May-19 13:59N 40°42' W 074°09'0 0.0
2017-May-19 13:29N 40°42' W 074°09'0 0.0
2017-May-19 12:59N 40°42' W 074°09'0 0.0
2017-May-19 12:29N 40°42' W 074°09'0 0.0
2017-May-19 11:59N 40°42' W 074°09'0 0.0
2017-May-19 11:29N 40°42' W 074°09'0 0.0
2017-May-19 10:59N 40°42' W 074°09'0 0.0
2017-May-19 10:29N 40°42' W 074°09'0 0.0
2017-May-19 09:59N 40°42' W 074°09'0 0.0
2017-May-19 09:29N 40°42' W 074°09'0 0.0
2017-May-19 08:59N 40°42' W 074°09'0 0.0
2017-May-19 08:29N 40°42' W 074°09'0 0.0
2017-May-19 07:59N 40°42' W 074°09'0 0.0
2017-May-19 07:29N 40°42' W 074°09'0 0.0
2017-May-19 06:59N 40°42' W 074°09'0 0.0
2017-May-19 06:29N 40°42' W 074°09'0 0.0
2017-May-19 05:59N 40°42' W 074°09'0 0.0
2017-May-19 05:29N 40°42' W 074°09'0 0.0
2017-May-19 04:59N 40°42' W 074°09'0 0.0
2017-May-19 04:29N 40°42' W 074°09'0 0.0
2017-May-19 03:59N 40°42' W 074°09'0 0.0
2017-May-19 03:29N 40°42' W 074°09'0 0.0
2017-May-19 02:59N 40°42' W 074°09'  
Track history (hours):
 
Tides and Currents Weather Stations Pressure Air Temp Water Temp Dewpoint Dewpoint Depression Visibility Wind Speed Wind Dir Waves Ship Positions

Liberty Promise

Owner: LIBERTY PROMISE CORPORATION, LAKE SUCCESS, NY. More information available from US FCC via Universal Licensing System and Coast Guard Vessel Documentation Center.

Last reported at 2017-May-29 02:54 UTC. Time now 2017-May-29 18:45 UTC.
Position N 30°24' W 081°19'.

Length 200 m; draft 8.5 m.

Type: Cargo ship. MMSI: 366102000.

Date/timePositionNaut miles runAvg speedWind from/ knotsBaromVisibWave heightAir tempDewpointWater temp
2017-May-29 02:54N 30°24' W 081°19'11 0.7
2017-May-28 11:33N 30°23' W 081°33'0 0.0
2017-May-28 11:21N 30°23' W 081°33'0 0.0
2017-May-28 11:00N 30°23' W 081°33'0 0.0
2017-May-27 11:42N 30°23' W 081°33'0 1.2
2017-May-27 11:30N 30°23' W 081°32'3 6.6
2017-May-27 10:58N 30°24' W 081°28'25 9.3
2017-May-27 08:17N 30°24' W 080°59'1116.0
2017-May-27 07:36N 30°30' W 080°49'415.9
2017-May-27 07:23N 30°32' W 080°46'615.9
2017-May-27 07:01N 30°36' W 080°41'815.7
2017-May-27 06:30N 30°41' W 080°34'54314.1
2017-May-25 16:05N 38°19' W 074°41'216.0
2017-May-25 15:59N 38°21' W 074°42'816.1
2017-May-25 15:30N 38°29' W 074°45'816.2
2017-May-25 15:00N 38°35' W 074°51'1814.1
2017-May-25 13:43N 38°50' W 075°04'4 9.7
2017-May-25 13:15N 38°54' W 075°05'313.7
2017-May-25 13:00N 38°58' W 075°07'713.5
2017-May-25 12:31N 39°04' W 075°10'612.7
2017-May-25 12:00N 39°09' W 075°15'612.4
2017-May-25 11:31N 39°15' W 075°19'713.2
2017-May-25 11:01N 39°19' W 075°25'714.2
2017-May-25 10:30N 39°25' W 075°31'713.4
2017-May-25 10:00N 39°31' W 075°33'714.2
2017-May-25 09:30N 39°38' W 075°34'5 9.8
2017-May-25 09:01N 39°42' W 075°31'0 0.1
2017-May-25 08:30N 39°43' W 075°31'0 0.0
2017-May-25 08:00N 39°43' W 075°31'0 0.0
2017-May-25 07:30N 39°43' W 075°31'0 0.0
2017-May-25 07:00N 39°43' W 075°31'0 0.0
2017-May-25 06:30N 39°43' W 075°31'0 0.0
2017-May-25 06:00N 39°43' W 075°31'0 0.0
2017-May-25 05:31N 39°43' W 075°31'0 0.0
2017-May-25 05:00N 39°43' W 075°31'0 0.0
2017-May-25 04:30N 39°43' W 075°31'0 0.0
2017-May-25 04:00N 39°43' W 075°31'0 0.0
2017-May-25 03:30N 39°43' W 075°31'0 0.0
2017-May-25 03:00N 39°43' W 075°31'0 0.0
2017-May-25 02:27N 39°43' W 075°31'0 0.0
2017-May-25 01:57N 39°43' W 075°31'0 0.0
2017-May-25 01:30N 39°43' W 075°31'0 0.0
2017-May-25 01:00N 39°43' W 075°31'0 0.0
2017-May-25 00:30N 39°43' W 075°31'0 0.0
2017-May-25 00:00N 39°43' W 075°31'0 0.0
2017-May-24 23:30N 39°43' W 075°31'0 0.0
2017-May-24 23:00N 39°43' W 075°31'0 0.0
2017-May-24 22:30N 39°43' W 075°31'0 0.0
2017-May-24 22:00N 39°43' W 075°31'0 0.0
2017-May-24 21:27N 39°43' W 075°31'0 0.0
2017-May-24 21:00N 39°43' W 075°31'0 0.0
2017-May-24 20:30N 39°43' W 075°31'0 0.0
2017-May-24 20:00N 39°43' W 075°31'0 0.0
2017-May-24 19:24N 39°43' W 075°31'0 0.0
2017-May-24 19:00N 39°43' W 075°31'0 0.0
2017-May-24 18:30N 39°43' W 075°31'0 0.0
2017-May-24 18:00N 39°43' W 075°31'0 0.0
2017-May-24 17:30N 39°43' W 075°31'0 0.0
2017-May-24 17:00N 39°43' W 075°31'0 0.0
2017-May-24 16:30N 39°43' W 075°31'0 0.0
2017-May-24 16:00N 39°43' W 075°31'0 0.0
2017-May-24 15:30N 39°43' W 075°31'0 0.0
2017-May-24 15:00N 39°43' W 075°31'0 0.0
2017-May-24 14:00N 39°43' W 075°31'0 0.0
2017-May-24 13:30N 39°43' W 075°31'0 0.0
2017-May-24 13:00N 39°43' W 075°31'0 0.0
2017-May-24 12:30N 39°43' W 075°31'0 0.0
2017-May-24 12:00N 39°43' W 075°31'0 0.0
2017-May-24 11:30N 39°43' W 075°31'0 0.0
2017-May-24 11:00N 39°43' W 075°31'0 0.0
2017-May-24 10:30N 39°43' W 075°31'0 0.0
2017-May-24 10:00N 39°43' W 075°31'0 0.0
2017-May-24 09:30N 39°43' W 075°31'0 0.0
2017-May-24 09:00N 39°43' W 075°31'0 0.0
2017-May-24 08:30N 39°43' W 075°31'0 0.0
2017-May-24 08:00N 39°43' W 075°31'0 0.0
2017-May-24 07:30N 39°43' W 075°31'0 0.0
2017-May-24 07:00N 39°43' W 075°31'0 0.0
2017-May-24 06:30N 39°43' W 075°31'0 0.1
2017-May-24 06:00N 39°42' W 075°31'3 5.7
2017-May-24 05:30N 39°45' W 075°29'3 6.7
2017-May-24 05:00N 39°48' W 075°26'3 5.0
2017-May-24 04:30N 39°49' W 075°24'2 4.1
2017-May-24 04:01N 39°50' W 075°22'3 5.2
2017-May-24 03:30N 39°51' W 075°18'4 7.4
2017-May-24 03:00N 39°52' W 075°14'4 7.4
2017-May-24 02:30N 39°53' W 075°09'2 3.0
2017-May-24 02:00N 39°54' W 075°08'0 0.0
2017-May-24 01:29N 39°54' W 075°08'0 0.0
2017-May-24 00:59N 39°54' W 075°08'0 0.0
2017-May-24 00:29N 39°54' W 075°08'0 0.0
2017-May-23 23:59N 39°54' W 075°08'0 0.0
2017-May-23 23:29N 39°54' W 075°08'0 0.0
2017-May-23 22:59N 39°54' W 075°08'0 0.0
2017-May-23 22:29N 39°54' W 075°08'0 0.0
2017-May-23 21:59N 39°54' W 075°08'0 0.0
2017-May-23 21:29N 39°54' W 075°08'0 0.0
2017-May-23 21:00N 39°54' W 075°08'0 0.0
2017-May-23 20:30N 39°54' W 075°08'0 0.0
2017-May-23 19:59N 39°54' W 075°08'0 0.0
2017-May-23 19:29N 39°54' W 075°08'0 0.0
2017-May-23 18:59N 39°54' W 075°08'0 0.0
2017-May-23 18:29N 39°54' W 075°08'0 0.0
2017-May-23 17:59N 39°54' W 075°08'0 0.0
2017-May-23 17:29N 39°54' W 075°08'0 0.0
2017-May-23 16:59N 39°54' W 075°08'0 0.0
2017-May-23 16:29N 39°54' W 075°08'0 0.0
2017-May-23 15:59N 39°54' W 075°08'0 0.0
2017-May-23 15:29N 39°54' W 075°08'0 0.0
2017-May-23 14:59N 39°54' W 075°08'0 0.0
2017-May-23 13:59N 39°54' W 075°08'0 0.0
2017-May-23 13:29N 39°54' W 075°08'0 0.0
2017-May-23 12:59N 39°54' W 075°08'0 0.0
2017-May-23 12:29N 39°54' W 075°08'0 0.0
2017-May-23 11:59N 39°54' W 075°08'0 0.0
2017-May-23 11:31N 39°54' W 075°08'2 3.3
2017-May-23 11:00N 39°53' W 075°09'3 6.7
2017-May-23 10:31N 39°52' W 075°13'4 8.2
2017-May-23 10:00N 39°51' W 075°19'5 9.7
2017-May-23 09:30N 39°49' W 075°24'611.2
2017-May-23 09:01N 39°45' W 075°30'611.2
2017-May-23 08:30N 39°40' W 075°32'611.4
2017-May-23 08:01N 39°34' W 075°33'5 9.8
2017-May-23 07:31N 39°29' W 075°34'612.6
2017-May-23 07:01N 39°24' W 075°29'713.4
2017-May-23 06:31N 39°19' W 075°24'713.7
2017-May-23 06:00N 39°14' W 075°18'713.9
2017-May-23 05:31N 39°08' W 075°13'714.1
2017-May-23 05:00N 39°01' W 075°09'813.2
2017-May-23 04:25N 38°54' W 075°05'511.4
2017-May-23 04:00N 38°50' W 075°03'3 6.9
2017-May-23 03:31N 38°47' W 075°01'611.7
2017-May-23 03:00N 38°47' W 074°53'612.2
2017-May-23 02:29N 38°48' W 074°45'713.2
2017-May-23 01:59N 38°49' W 074°37'715.1
2017-May-23 01:30N 38°51' W 074°28'815.2
2017-May-23 01:00N 38°53' W 074°19'1515.2
2017-May-23 00:01N 38°58' W 074°00'115.1
2017-May-22 23:58N 38°59' W 073°59'715.1
2017-May-22 23:30N 39°01' W 073°51'25410.2
2017-May-21 22:32N 41°52' W 069°45'1 9.7
2017-May-21 22:27N 41°53' W 069°45'610.4
2017-May-21 21:55N 41°58' W 069°49'717.0
2017-May-21 21:30N 42°04' W 069°53'917.2
2017-May-21 21:00N 42°12' W 069°59'815.5
2017-May-21 20:30N 42°17' W 070°07'916.3
2017-May-21 19:59N 42°18' W 070°18'816.7
2017-May-21 19:30N 42°19' W 070°29'816.6
2017-May-21 19:00N 42°20' W 070°40'815.5
2017-May-21 18:30N 42°23' W 070°50'611.4
2017-May-21 18:00N 42°20' W 070°57'5 9.1
2017-May-21 17:30N 42°22' W 071°03'2 2.9
2017-May-21 17:00N 42°23' W 071°03'0 0.0
2017-May-21 16:30N 42°23' W 071°03'0 0.0
2017-May-21 16:00N 42°23' W 071°03'0 0.0
2017-May-21 15:30N 42°23' W 071°03'0 0.0
2017-May-21 15:00N 42°23' W 071°03'0 0.0
2017-May-21 14:30N 42°23' W 071°03'0 0.0
2017-May-21 13:30N 42°23' W 071°03'0 0.0
2017-May-21 13:00N 42°23' W 071°03'0 0.0
2017-May-21 12:30N 42°23' W 071°03'0 0.0
2017-May-21 12:00N 42°23' W 071°03'0 0.0
2017-May-21 11:30N 42°23' W 071°03'0 0.0
2017-May-21 11:00N 42°23' W 071°03'0 0.0
2017-May-21 10:30N 42°23' W 071°03'0 0.0
2017-May-21 10:00N 42°23' W 071°03'0 0.0
2017-May-21 09:30N 42°23' W 071°03'0 0.0
2017-May-21 09:00N 42°23' W 071°03'0 0.0
2017-May-21 08:30N 42°23' W 071°03'0 0.0
2017-May-21 08:00N 42°23' W 071°03'0 0.0
2017-May-21 07:30N 42°23' W 071°03'0 0.0
2017-May-21 06:54N 42°23' W 071°03'0 0.0
2017-May-21 06:30N 42°23' W 071°03'0 0.0
2017-May-21 05:57N 42°23' W 071°03'0 0.0
2017-May-21 05:30N 42°23' W 071°03'0 0.0
2017-May-21 04:51N 42°23' W 071°03'0 0.0
2017-May-21 04:30N 42°23' W 071°03'0 0.0
2017-May-21 04:00N 42°23' W 071°03'0 0.0
2017-May-21 03:30N 42°23' W 071°03'0 0.0
2017-May-21 03:00N 42°23' W 071°03'0 0.0
2017-May-21 02:30N 42°23' W 071°03'0 0.0
2017-May-21 02:00N 42°23' W 071°03'0 0.0
2017-May-21 01:30N 42°23' W 071°03'0 0.0
2017-May-21 01:00N 42°23' W 071°03'0 0.7
2017-May-21 00:30N 42°23' W 071°03'4 8.1
2017-May-21 00:01N 42°20' W 070°59'713.6
2017-May-20 23:30N 42°24' W 070°51'611.7
2017-May-20 23:01N 42°23' W 070°43'713.7
2017-May-20 22:31N 42°22' W 070°34'918.0
2017-May-20 22:01N 42°21' W 070°22'918.2
2017-May-20 21:30N 42°20' W 070°10'917.2
2017-May-20 21:00N 42°18' W 069°59'917.7
2017-May-20 20:31N 42°10' W 069°53'199 8.3
2017-May-19 20:41N 40°26' W 073°38'516.6
2017-May-19 20:22N 40°27' W 073°45'512.1
2017-May-19 19:59N 40°28' W 073°51'714.5
2017-May-19 19:30N 40°31' W 073°59'713.8
2017-May-19 19:00N 40°37' W 074°03'4 7.4
2017-May-19 18:31N 40°39' W 074°07'2 4.1
2017-May-19 18:01N 40°41' W 074°08'1 2.5
2017-May-19 17:31N 40°42' W 074°09'0 0.4
2017-May-19 16:59N 40°42' W 074°09'0 0.0
2017-May-19 16:29N 40°42' W 074°09'0 0.0
2017-May-19 15:59N 40°42' W 074°09'0 0.0
2017-May-19 15:29N 40°42' W 074°09'0 0.0
2017-May-19 14:59N 40°42' W 074°09'0 0.0
2017-May-19 13:59N 40°42' W 074°09'0 0.0
2017-May-19 13:29N 40°42' W 074°09'0 0.0
2017-May-19 12:59N 40°42' W 074°09'0 0.0
2017-May-19 12:29N 40°42' W 074°09'0 0.0
2017-May-19 11:59N 40°42' W 074°09'0 0.0
2017-May-19 11:29N 40°42' W 074°09'0 0.0
2017-May-19 10:59N 40°42' W 074°09'0 0.0
2017-May-19 10:29N 40°42' W 074°09'0 0.0
2017-May-19 09:59N 40°42' W 074°09'0 0.0
2017-May-19 09:29N 40°42' W 074°09'0 0.0
2017-May-19 08:59N 40°42' W 074°09'0 0.0
2017-May-19 08:29N 40°42' W 074°09'0 0.0
2017-May-19 07:59N 40°42' W 074°09'0 0.0
2017-May-19 07:29N 40°42' W 074°09'0 0.0
2017-May-19 06:59N 40°42' W 074°09'0 0.0
2017-May-19 06:29N 40°42' W 074°09'0 0.0
2017-May-19 05:59N 40°42' W 074°09'0 0.0
2017-May-19 05:29N 40°42' W 074°09'0 0.0
2017-May-19 04:59N 40°42' W 074°09'0 0.0
2017-May-19 04:29N 40°42' W 074°09'0 0.0
2017-May-19 03:59N 40°42' W 074°09'0 0.0
2017-May-19 03:29N 40°42' W 074°09'0 0.0
2017-May-19 02:59N 40°42' W 074°09'  

Dump ship's entire track history